Corpus Christi International Airport Corpus Christi US
ICAO: KCRP
IATA: CRP
Category: Large
Scheduled Services: Yes

Elevation: 44 ft
TransAlt. 18000 ft.

Airport Communications:
APP/DEP:120.9
ATIS:126.8
CLNC DEL:118.55
GND:121.9
SAN ANGELO RDO:122.65
TWR:119.4
UNICOM:122.95

KCRP Zoom In..

Runways:

(A) RW 13 length 7508 ft width 150 ft
ILS 110.30 / hdg 129

(B) RW 17 length 6080 ft width 150 ft
LOC 110.30 / hdg 172

(C) RW 31 length 7508 ft width 150 ft
LOC 110.30 / hdg 309

(D) RW 35 length 6080 ft width 150 ft
ILS 109.50 / hdg 352

Location; KCRP
Day. 23 / Time. 21.51 Zulu
* Altimeter: 30.22
* Temperature: 18° c. 64.4°f.
* Wind from: 110° Speed 11 kn.
Dewpoint: -03° c.
Visibility: 10 Statute Miles.
Clouds: Few 700 ft.
Clouds: Scattered 9000 ft.
Clouds: Broken 11000 ft.
Clouds: Broken 2000 ft.
Clouds: Overcast 25000 ft.
Clouds: Few 700 ft.
Conditions: Smoke.

KCRP 232151Z 11011KT 10SM FEW007 SCT090 BKN110 BKN200 OVC250 18/M03 A3022 RMK AO2 SLP234 FU FEW007 T01831028


Wind From 110°
Speed 11 kn.

YouTube Music Video
 
jpsmedia.com for Web Design  worldairports.se 2018   terms of use